Time;durP1;ratioP1;P1;durP2;ratioP2;P2;SDS_P1;SDS_P2;PMS_P1;PMS_P2;Temp;Humidity;BMP_temperature;BMP_pressure;BME280_temperature;BME280_humidity;BME280_pressure;Samples;Min_cycle;Max_cycle;Signal;HPM_P1;HPM_P2
2021/03/27 00:01:32;;;;;;;7.30;4.38;;;;;;;4.12;49.94;99960.34;5049084;28;20033;-75
2021/03/27 00:04:25;;;;;;;8.32;3.40;;;;;;;4.13;50.40;99959.31;5038160;28;20030;-78
2021/03/27 00:07:15;;;;;;;9.57;4.78;;;;;;;4.18;50.92;99957.91;5029338;28;20033;-76
2021/03/27 00:09:46;;;;;;;13.35;4.90;;;;;;;4.16;51.07;99960.72;5034562;28;20443;-77
2021/03/27 00:12:29;;;;;;;9.65;6.10;;;;;;;4.14;51.38;99957.50;5049303;28;20036;-78
2021/03/27 00:14:58;;;;;;;15.07;7.38;;;;;;;4.11;51.96;99949.97;5049097;28;20021;-78
2021/03/27 00:17:55;;;;;;;17.50;8.55;;;;;;;4.08;52.19;99956.50;5048890;28;20090;-78
2021/03/27 00:20:34;;;;;;;14.93;8.93;;;;;;;4.03;52.46;99948.38;5032304;28;20033;-78
2021/03/27 00:23:17;;;;;;;14.27;8.50;;;;;;;3.99;52.82;99949.81;5026544;28;20091;-76
2021/03/27 00:26:24;;;;;;;19.77;13.43;;;;;;;3.92;53.33;99944.56;5033417;28;20381;-76
2021/03/27 00:29:00;;;;;;;16.80;12.80;;;;;;;3.84;53.47;99950.06;5052218;28;20438;-76
2021/03/27 00:31:33;;;;;;;19.10;10.93;;;;;;;3.78;53.53;99949.06;5052667;28;20021;-76
2021/03/27 00:34:05;;;;;;;15.68;10.68;;;;;;;3.73;54.18;99956.81;5047124;28;20041;-79
2021/03/27 00:36:37;;;;;;;16.90;10.38;;;;;;;3.64;54.26;99947.50;5052656;28;20052;-78
2021/03/27 00:39:13;;;;;;;14.52;10.60;;;;;;;3.55;54.27;99951.38;5041817;28;20029;-75
2021/03/27 00:42:05;;;;;;;18.50;10.38;;;;;;;3.47;54.68;99958.53;5057804;28;20032;-76
2021/03/27 00:44:36;;;;;;;19.02;12.32;;;;;;;3.39;54.78;99956.09;5036655;28;20037;-77
2021/03/27 00:47:03;;;;;;;15.98;11.05;;;;;;;3.30;55.19;99952.03;5033212;28;20025;-76
2021/03/27 00:49:40;;;;;;;18.75;12.00;;;;;;;3.25;55.50;99955.31;5033474;28;20028;-78
2021/03/27 00:52:12;;;;;;;23.00;12.32;;;;;;;3.11;54.97;99943.09;5035826;28;20026;-78
2021/03/27 00:54:50;;;;;;;16.33;11.23;;;;;;;3.16;55.36;99967.09;5033867;28;20020;-74
2021/03/27 00:57:20;;;;;;;16.38;8.82;;;;;;;3.09;55.71;99956.53;5032765;28;20164;-73
2021/03/27 00:59:54;;;;;;;14.43;8.55;;;;;;;3.05;56.05;99955.31;5034314;28;20025;-74
2021/03/27 01:02:21;;;;;;;14.52;8.43;;;;;;;2.99;56.24;99956.13;5053869;28;20025;-75
2021/03/27 01:04:48;;;;;;;15.73;9.85;;;;;;;2.95;55.97;99957.56;5069244;28;20033;-76
2021/03/27 01:07:14;;;;;;;22.10;9.55;;;;;;;2.94;56.41;99959.38;5064387;28;20507;-76
2021/03/27 01:10:21;;;;;;;18.40;8.73;;;;;;;2.92;55.94;99955.28;5051322;28;20051;-76
2021/03/27 01:12:49;;;;;;;18.15;8.38;;;;;;;2.89;56.25;99961.81;5033286;28;20060;-76
2021/03/27 01:15:26;;;;;;;13.60;8.52;;;;;;;2.90;56.73;99954.72;5032536;28;20470;-76
2021/03/27 01:17:54;;;;;;;17.33;8.48;;;;;;;2.86;56.53;99959.59;5034167;28;20045;-75
2021/03/27 01:20:27;;;;;;;13.30;7.03;;;;;;;2.85;56.39;99960.59;5033772;28;20029;-76
2021/03/27 01:22:54;;;;;;;16.58;7.95;;;;;;;2.83;57.02;99960.81;5065914;28;20021;-74
2021/03/27 01:25:24;;;;;;;15.10;7.75;;;;;;;2.81;56.53;99967.31;5068709;28;20035;-74
2021/03/27 01:28:08;;;;;;;12.85;7.53;;;;;;;2.79;56.77;99954.28;5051927;28;20086;-74
2021/03/27 01:30:48;;;;;;;13.30;7.75;;;;;;;2.75;56.64;99954.88;5069013;28;20480;-76
2021/03/27 01:33:24;;;;;;;11.88;8.25;;;;;;;2.74;57.34;99962.00;5052005;28;20053;-75
2021/03/27 01:36:15;;;;;;;12.18;7.35;;;;;;;2.75;57.07;99960.16;5068486;28;20111;-76
2021/03/27 01:39:22;;;;;;;16.23;8.00;;;;;;;2.72;56.95;99964.84;5030927;28;20038;-76
2021/03/27 01:41:59;;;;;;;14.15;7.82;;;;;;;2.74;57.27;99966.47;5041560;28;20425;-76
2021/03/27 01:45:00;;;;;;;13.85;7.68;;;;;;;2.71;57.17;99968.50;5068600;28;20074;-76
2021/03/27 01:47:33;;;;;;;12.43;8.15;;;;;;;2.70;57.58;99964.22;5033805;28;20036;-76
2021/03/27 01:50:23;;;;;;;16.70;8.13;;;;;;;2.71;57.46;99960.59;5038939;28;20491;-76
2021/03/27 01:53:01;;;;;;;17.80;8.75;;;;;;;2.65;57.19;99957.91;5068757;28;20021;-76
2021/03/27 01:55:32;;;;;;;12.17;6.87;;;;;;;2.64;57.38;99956.31;5051451;28;20028;-79
2021/03/27 01:58:19;;;;;;;15.00;7.78;;;;;;;2.61;57.21;99957.50;5050202;28;20028;-76
2021/03/27 02:00:50;;;;;;;13.23;7.73;;;;;;;2.56;57.25;99957.31;5046851;28;20014;-76
2021/03/27 02:03:36;;;;;;;15.10;8.48;;;;;;;2.57;57.56;99958.94;5031744;28;20263;-76
2021/03/27 02:06:11;;;;;;;15.02;9.02;;;;;;;2.54;57.47;99960.16;5050802;28;20036;-76
2021/03/27 02:09:01;;;;;;;19.58;8.48;;;;;;;2.52;57.14;99966.66;5056115;28;20029;-80
2021/03/27 02:11:47;;;;;;;13.23;7.22;;;;;;;2.50;57.58;99971.31;5049032;28;20028;-80
2021/03/27 02:14:48;;;;;;;19.77;8.95;;;;;;;2.48;57.41;99973.31;5056131;28;20032;-82
2021/03/27 02:17:13;;;;;;;11.07;6.85;;;;;;;2.45;57.15;99971.91;5065904;28;20037;-78
2021/03/27 02:19:57;;;;;;;12.75;7.70;;;;;;;2.42;57.65;99974.94;5051515;28;20054;-78
2021/03/27 02:22:43;;;;;;;9.70;6.63;;;;;;;2.38;57.53;99976.34;5033193;28;20025;-80
2021/03/27 02:25:46;;;;;;;14.02;7.28;;;;;;;2.36;57.70;99979.19;5036485;28;20036;-83
2021/03/27 02:31:44;;;;;;;12.85;6.13;;;;;;;2.27;57.58;99975.13;5051846;28;20032;-75
2021/03/27 02:34:13;;;;;;;10.40;5.32;;;;;;;2.24;57.50;99978.94;5068149;28;20118;-80
2021/03/27 02:37:01;;;;;;;13.07;5.93;;;;;;;2.19;58.05;99984.00;5053227;28;20389;-76
2021/03/27 02:39:42;;;;;;;;;;;;;;;2.16;57.84;99986.22;5032534;28;20382;-77
2021/03/27 02:42:49;;;;;;;7.82;5.28;;;;;;;2.12;57.91;99990.28;5062146;28;19904;-82
2021/03/27 02:45:41;;;;;;;11.83;6.03;;;;;;;2.05;58.11;99984.97;5060267;28;20035;-80
2021/03/27 02:48:42;;;;;;;9.55;5.45;;;;;;;2.00;57.80;99990.00;5045238;28;20411;-79
2021/03/27 02:55:53;;;;;;;12.90;5.20;;;;;;;1.89;58.48;99992.22;5048734;28;20060;-81
2021/03/27 02:59:09;;;;;;;12.32;6.50;;;;;;;1.86;58.37;99997.06;5059285;28;20083;-83
2021/03/27 03:02:22;;;;;;;10.55;6.28;;;;;;;1.84;59.36;99988.53;5053957;28;20041;-82
2021/03/27 03:04:59;;;;;;;9.57;5.30;;;;;;;1.78;59.14;99997.22;5064153;28;20048;-81
2021/03/27 03:07:44;;;;;;;10.23;6.28;;;;;;;1.75;58.79;99991.31;5072747;28;20043;-83
2021/03/27 03:10:47;;;;;;;11.13;6.07;;;;;;;1.76;58.89;99998.22;5053256;28;20068;-76
2021/03/27 03:13:29;;;;;;;10.32;6.05;;;;;;;1.76;58.85;99992.94;5049626;28;20021;-75
2021/03/27 03:15:55;;;;;;;9.15;5.55;;;;;;;1.77;58.86;99996.41;5033836;28;20020;-75
2021/03/27 03:19:02;;;;;;;8.90;4.95;;;;;;;1.76;58.60;99994.78;5050009;28;20032;-74
2021/03/27 03:21:31;;;;;;;12.17;6.87;;;;;;;1.73;58.74;99998.63;5060561;28;20025;-76
2021/03/27 03:23:56;;;;;;;10.02;5.72;;;;;;;1.73;58.60;99990.72;5035329;28;20866;-75
2021/03/27 03:26:59;;;;;;;10.45;6.00;;;;;;;1.71;58.96;99994.53;5049586;28;20128;-75
2021/03/27 03:29:52;;;;;;;13.57;6.00;;;;;;;1.69;58.57;100001.84;5049728;28;20037;-75
2021/03/27 03:32:17;;;;;;;12.20;5.88;;;;;;;1.66;59.17;100003.03;5041577;28;20036;-75
2021/03/27 03:34:54;;;;;;;13.10;6.47;;;;;;;1.64;58.88;100001.63;5030156;28;20021;-75
2021/03/27 03:37:31;;;;;;;16.50;7.47;;;;;;;1.60;59.31;99999.34;5029438;28;20034;-77
2021/03/27 03:40:05;;;;;;;17.17;8.98;;;;;;;1.59;59.71;100004.81;5032479;28;20076;-78
2021/03/27 03:45:58;;;;;;;19.63;9.70;;;;;;;1.49;60.09;100009.59;5055287;28;20400;-78
2021/03/27 03:48:45;;;;;;;16.17;9.45;;;;;;;1.41;60.58;100002.66;5049463;28;20037;-78
2021/03/27 03:51:44;;;;;;;16.40;8.98;;;;;;;1.38;60.41;100006.50;5066275;28;20028;-76
2021/03/27 03:54:29;;;;;;;16.15;7.53;;;;;;;1.32;60.45;100009.91;5029787;28;20075;-77
2021/03/27 03:57:00;;;;;;;18.17;8.63;;;;;;;1.30;60.69;100011.91;5046108;28;20521;-78
2021/03/27 03:59:48;;;;;;;15.85;8.48;;;;;;;1.28;60.08;100006.84;5029744;28;20557;-74
2021/03/27 04:02:40;;;;;;;15.75;8.45;;;;;;;1.22;60.68;100002.34;5033437;28;20037;-75
2021/03/27 04:05:15;;;;;;;19.00;8.55;;;;;;;1.24;60.73;100020.56;5031907;28;20389;-78
2021/03/27 04:07:46;;;;;;;15.18;8.23;;;;;;;1.22;61.04;100015.50;5064439;28;20079;-78
2021/03/27 04:10:17;;;;;;;16.05;7.53;;;;;;;1.22;60.71;100009.41;5066071;28;20048;-76
2021/03/27 04:13:13;;;;;;;14.70;7.88;;;;;;;1.23;60.65;100021.59;5065836;28;20074;-78
2021/03/27 04:15:48;;;;;;;23.80;10.27;;;;;;;1.23;60.84;100018.94;5050282;28;20033;-76
2021/03/27 04:18:45;;;;;;;16.75;9.77;;;;;;;1.30;60.69;100025.09;5049677;28;20037;-77
2021/03/27 04:21:27;;;;;;;19.77;9.73;;;;;;;1.36;60.52;100029.59;5048714;28;20067;-78
2021/03/27 04:23:59;;;;;;;12.95;8.02;;;;;;;1.42;60.53;100025.38;5043797;28;20094;-76
2021/03/27 04:26:27;;;;;;;20.92;9.90;;;;;;;1.58;60.63;100037.47;5034955;28;20091;-76
2021/03/27 04:29:18;;;;;;;15.57;8.65;;;;;;;1.71;59.99;100037.56;5062965;28;20436;-76
2021/03/27 04:32:12;;;;;;;21.13;9.25;;;;;;;1.95;59.53;100043.38;5062689;28;20033;-76
2021/03/27 04:34:51;;;;;;;20.38;8.98;;;;;;;2.20;59.19;100046.34;5034052;28;20033;-76
2021/03/27 04:37:32;;;;;;;15.60;8.73;;;;;;;2.45;58.49;100039.75;5030340;28;20109;-76
2021/03/27 04:40:07;;;;;;;16.15;9.65;;;;;;;2.71;57.94;100039.00;5029535;28;20159;-76
2021/03/27 04:42:47;;;;;;;15.55;8.57;;;;;;;3.02;57.22;100054.31;5032557;28;20025;-76
2021/03/27 04:45:25;;;;;;;18.88;8.85;;;;;;;3.38;56.52;100051.50;5047688;28;20025;-76
2021/03/27 04:48:12;;;;;;;14.07;8.57;;;;;;;3.72;55.61;100060.22;5029382;28;20044;-77
2021/03/27 04:50:57;;;;;;;15.85;8.13;;;;;;;4.09;55.21;100060.53;5043629;28;20094;-77
2021/03/27 04:53:29;;;;;;;13.88;6.57;;;;;;;4.49;53.81;100063.88;5048020;28;20028;-77
2021/03/27 04:56:14;;;;;;;10.88;6.90;;;;;;;4.90;53.00;100064.47;5061986;28;20029;-76
2021/03/27 04:58:52;;;;;;;12.88;8.10;;;;;;;5.29;52.36;100067.88;5049677;28;20083;-76
2021/03/27 05:01:20;;;;;;;16.80;8.68;;;;;;;5.66;51.54;100061.88;5050109;28;20032;-77
2021/03/27 05:04:07;;;;;;;20.73;10.57;;;;;;;6.05;50.83;100064.38;5048543;28;20024;-78
2021/03/27 05:06:43;;;;;;;24.45;13.32;;;;;;;6.48;49.53;100068.81;5047616;28;20041;-78
2021/03/27 05:09:30;;;;;;;25.88;14.68;;;;;;;6.81;49.02;100064.91;5063304;28;20021;-78
2021/03/27 05:12:07;;;;;;;27.88;15.25;;;;;;;7.20;47.32;100067.19;5029080;28;20495;-78
2021/03/27 05:14:54;;;;;;;30.85;14.43;;;;;;;7.58;47.16;100070.50;5032892;28;20076;-78
2021/03/27 05:17:28;;;;;;;30.33;15.90;;;;;;;7.91;46.23;100075.25;5034251;28;20085;-78
2021/03/27 05:20:04;;;;;;;29.70;15.35;;;;;;;8.22;44.83;100080.44;5052711;28;20021;-78
2021/03/27 05:23:18;;;;;;;27.75;14.18;;;;;;;8.56;43.82;100072.63;5051691;28;20106;-77
2021/03/27 05:26:21;;;;;;;20.52;10.35;;;;;;;8.91;43.77;100080.47;5016183;28;20413;-77
2021/03/27 05:28:50;;;;;;;18.30;8.10;;;;;;;9.21;42.25;100075.91;5033723;28;20053;-77
2021/03/27 05:31:33;;;;;;;21.33;12.68;;;;;;;9.49;41.78;100076.91;5032492;28;20079;-77
2021/03/27 05:34:05;;;;;;;13.98;8.15;;;;;;;9.77;40.74;100079.44;5038734;28;20052;-76
2021/03/27 05:37:01;;;;;;;20.65;12.25;;;;;;;9.99;40.08;100092.06;5051912;28;20086;-79
2021/03/27 05:39:32;;;;;;;20.17;13.27;;;;;;;10.20;39.77;100090.44;5046564;28;20116;-78
2021/03/27 05:42:27;;;;;;;28.55;15.43;;;;;;;10.42;41.08;100089.69;5035201;28;20045;-76
2021/03/27 05:45:30;;;;;;;20.50;12.68;;;;;;;10.56;39.81;100090.13;5046263;28;20024;-78
2021/03/27 05:48:07;;;;;;;19.30;11.50;;;;;;;10.71;39.88;100089.50;5051870;28;20028;-78
2021/03/27 05:50:51;;;;;;;24.90;12.90;;;;;;;10.87;39.28;100095.81;5045573;28;20104;-78
2021/03/27 05:53:47;;;;;;;20.75;13.02;;;;;;;11.01;39.29;100099.72;5033117;28;20067;-77
2021/03/27 05:56:16;;;;;;;20.27;12.57;;;;;;;11.14;39.26;100097.69;5032013;28;20607;-77
2021/03/27 05:59:19;;;;;;;20.73;12.25;;;;;;;11.23;38.13;100103.38;5033327;28;20033;-80
2021/03/27 06:01:56;;;;;;;16.20;9.93;;;;;;;11.29;38.12;100103.19;5043625;28;20535;-78
2021/03/27 06:04:59;;;;;;;12.97;8.23;;;;;;;11.36;38.68;100105.63;5068384;28;20469;-81
2021/03/27 06:08:06;;;;;;;11.15;7.35;;;;;;;11.41;37.82;100102.19;5050314;28;20055;-80
2021/03/27 06:10:50;;;;;;;19.40;11.07;;;;;;;11.41;37.94;100102.19;5068280;28;20124;-80
2021/03/27 06:13:34;;;;;;;14.43;10.05;;;;;;;11.44;37.69;100091.00;5067800;28;20287;-79
2021/03/27 06:16:24;;;;;;;15.07;11.13;;;;;;;11.51;37.96;100102.28;5051306;28;20032;-79
2021/03/27 06:19:27;;;;;;;21.08;13.23;;;;;;;11.48;38.08;100100.13;5040654;28;20101;-80
2021/03/27 06:22:07;;;;;;;21.02;11.45;;;;;;;11.54;37.86;100104.44;5031059;28;20501;-79
2021/03/27 06:25:05;;;;;;;16.20;9.23;;;;;;;11.52;38.08;100104.72;5033334;28;20493;-80
2021/03/27 06:28:02;;;;;;;15.77;9.60;;;;;;;11.56;37.56;100107.69;5039155;28;20110;-80
2021/03/27 06:30:36;;;;;;;17.48;10.70;;;;;;;11.56;37.40;100107.69;5031463;28;20040;-79
2021/03/27 06:33:31;;;;;;;19.58;11.50;;;;;;;11.50;37.61;100103.34;5045337;28;20033;-78
2021/03/27 06:36:06;;;;;;;21.10;10.85;;;;;;;11.50;37.54;100103.34;5049239;28;20560;-78
2021/03/27 06:39:02;;;;;;;19.98;12.05;;;;;;;11.47;37.32;100106.53;5050676;28;20049;-77
2021/03/27 06:41:52;;;;;;;17.90;12.77;;;;;;;11.45;38.33;100103.28;5056276;28;20397;-78
2021/03/27 06:44:41;;;;;;;14.65;11.25;;;;;;;11.49;37.97;100107.88;5049716;28;20029;-79
2021/03/27 06:47:25;;;;;;;19.60;10.30;;;;;;;11.49;37.53;100109.78;5044242;28;20044;-78
2021/03/27 06:50:13;;;;;;;18.83;11.20;;;;;;;11.51;37.45;100104.94;5044072;28;20029;-78
2021/03/27 06:53:06;;;;;;;17.67;11.32;;;;;;;11.53;37.88;100113.53;5037995;28;20490;-78
2021/03/27 06:55:43;;;;;;;20.45;11.23;;;;;;;11.59;38.28;100114.41;5035116;28;20021;-77
2021/03/27 06:58:28;;;;;;;15.10;10.30;;;;;;;11.75;38.56;100115.31;5047992;28;20095;-77
2021/03/27 07:01:14;;;;;;;20.20;13.50;;;;;;;11.86;38.00;100122.34;5030193;28;20032;-81
2021/03/27 07:04:08;;;;;;;19.55;11.63;;;;;;;11.92;37.99;100113.28;5029925;28;20084;-78
2021/03/27 07:06:45;;;;;;;15.98;9.57;;;;;;;11.95;37.36;100120.81;5048044;28;20053;-76
2021/03/27 07:09:23;;;;;;;11.38;8.25;;;;;;;11.91;36.83;100126.94;5049945;28;20041;-78
2021/03/27 07:12:10;;;;;;;15.95;9.57;;;;;;;11.92;37.59;100128.56;5050165;28;20025;-79
2021/03/27 07:15:17;;;;;;;14.27;9.75;;;;;;;11.84;36.56;100130.66;5040796;28;20033;-78
2021/03/27 07:17:56;;;;;;;13.75;8.93;;;;;;;11.76;37.28;100128.47;5042481;28;20049;-80
2021/03/27 07:20:47;;;;;;;11.75;7.45;;;;;;;11.71;37.39;100127.63;5044866;28;20056;-75
2021/03/27 07:23:49;;;;;;;17.55;7.90;;;;;;;11.74;37.62;100129.78;5044922;28;20034;-76
2021/03/27 07:26:23;;;;;;;11.35;7.80;;;;;;;11.67;37.27;100138.84;5043045;28;20082;-77
2021/03/27 07:29:30;;;;;;;10.73;7.50;;;;;;;11.63;36.53;100134.25;5044901;28;20103;-75
2021/03/27 07:32:33;;;;;;;18.15;9.05;;;;;;;11.60;36.84;100132.91;5043221;28;20025;-76
2021/03/27 07:35:17;;;;;;;11.82;8.48;;;;;;;11.57;36.56;100138.78;5046874;28;20027;-74
2021/03/27 07:37:42;;;;;;;10.32;6.43;;;;;;;11.54;37.13;100139.28;5049179;28;20028;-74
2021/03/27 07:40:29;;;;;;;12.10;7.32;;;;;;;11.47;36.80;100144.03;5049952;28;20021;-75
2021/03/27 07:42:57;;;;;;;17.45;8.60;;;;;;;11.44;36.49;100147.25;5048367;28;20066;-76
2021/03/27 07:45:57;;;;;;;12.45;8.88;;;;;;;11.40;36.61;100144.25;5048456;28;20055;-76
2021/03/27 07:48:28;;;;;;;14.05;9.93;;;;;;;11.43;36.12;100148.28;5048007;28;20019;-76
2021/03/27 07:51:15;;;;;;;16.55;9.32;;;;;;;11.48;36.03;100141.09;5049334;28;20028;-75
2021/03/27 07:53:52;;;;;;;17.15;9.98;;;;;;;11.51;36.69;100137.91;5049467;28;20098;-77
2021/03/27 07:56:45;;;;;;;16.08;9.45;;;;;;;11.57;36.50;100138.78;5048291;28;20083;-76
2021/03/27 07:59:29;;;;;;;16.23;10.07;;;;;;;11.54;37.27;100144.63;5045988;28;20025;-77
2021/03/27 08:01:58;;;;;;;20.85;11.63;;;;;;;11.51;37.32;100142.44;5044091;28;20046;-77
2021/03/27 08:04:35;;;;;;;;;;;;;;;11.52;37.34;100142.22;5033213;28;20044;-78
2021/03/27 08:07:09;;;;;;;22.08;12.50;;;;;;;11.53;37.18;100137.66;5043588;28;19917;-83
2021/03/27 08:10:02;;;;;;;15.88;10.77;;;;;;;11.57;37.00;100146.00;5049298;28;20579;-76
2021/03/27 08:12:45;;;;;;;17.88;10.90;;;;;;;11.55;36.63;100143.56;5049220;28;20119;-76
2021/03/27 08:15:43;;;;;;;17.77;11.23;;;;;;;11.51;37.05;100148.63;5041342;28;20063;-79
2021/03/27 08:18:37;;;;;;;16.23;9.90;;;;;;;11.49;36.01;100148.06;5036915;28;20120;-75
2021/03/27 08:21:27;;;;;;;18.00;10.55;;;;;;;11.54;36.33;100150.00;5029655;28;20048;-76
2021/03/27 08:24:02;;;;;;;16.58;11.23;;;;;;;11.56;36.27;100147.06;5029051;28;20034;-76
2021/03/27 08:26:48;;;;;;;19.55;12.10;;;;;;;11.53;35.13;100145.69;5029255;28;20025;-77
2021/03/27 08:29:29;;;;;;;20.55;9.77;;;;;;;11.51;35.04;100148.63;5033278;28;20134;-76
2021/03/27 08:31:54;;;;;;;22.02;12.10;;;;;;;11.51;35.84;100148.63;5047462;28;20029;-75
2021/03/27 08:34:44;;;;;;;17.58;10.13;;;;;;;11.51;34.74;100142.44;5049956;28;20420;-75
2021/03/27 08:37:22;;;;;;;16.45;10.00;;;;;;;11.56;34.85;100144.38;5037697;28;20494;-76
2021/03/27 08:40:10;;;;;;;15.10;10.00;;;;;;;11.62;34.95;100144.16;5048393;28;20078;-76
2021/03/27 08:43:00;;;;;;;15.63;9.90;;;;;;;11.74;34.41;100135.13;5038073;28;20033;-77
2021/03/27 08:45:43;;;;;;;16.38;9.02;;;;;;;11.83;34.67;100141.66;5039113;28;20039;-74
2021/03/27 08:48:30;;;;;;;17.90;11.15;;;;;;;11.93;34.53;100135.56;5041504;28;20036;-74
2021/03/27 08:51:09;;;;;;;18.92;11.57;;;;;;;12.00;34.71;100130.81;5043475;28;20041;-76
2021/03/27 08:54:08;;;;;;;21.15;10.13;;;;;;;12.14;35.12;100141.88;5054438;28;20060;-75
2021/03/27 08:57:03;;;;;;;14.52;8.43;;;;;;;12.28;33.08;100129.63;5048467;28;20043;-75
2021/03/27 08:59:43;;;;;;;13.27;9.77;;;;;;;12.39;32.94;100135.03;5046230;28;20036;-75
2021/03/27 09:02:42;;;;;;;14.68;9.05;;;;;;;12.41;32.94;100133.69;5051158;28;20017;-75
2021/03/27 09:05:32;;;;;;;17.83;8.77;;;;;;;12.56;33.41;100124.09;5034116;28;20028;-75
2021/03/27 09:08:22;;;;;;;9.50;7.20;;;;;;;12.62;32.02;100126.56;5050662;28;20025;-75
2021/03/27 09:11:16;;;;;;;14.20;8.45;;;;;;;12.63;31.50;100117.44;5047532;28;20040;-75
2021/03/27 09:14:03;;;;;;;10.60;6.40;;;;;;;12.63;31.36;100112.06;5050635;28;20028;-75
2021/03/27 09:16:28;;;;;;;12.80;8.65;;;;;;;12.71;32.68;100112.63;5053008;28;20420;-75
2021/03/27 09:19:29;;;;;;;12.57;7.90;;;;;;;12.74;32.10;100104.84;5050441;28;20124;-75
2021/03/27 09:22:32;;;;;;;10.95;7.78;;;;;;;12.82;31.63;100108.91;5052684;28;20477;-75
2021/03/27 09:25:52;;;;;;;10.38;6.95;;;;;;;12.88;32.84;100097.09;5051997;28;20029;-75
2021/03/27 09:28:34;;;;;;;15.27;8.48;;;;;;;12.93;33.74;100094.41;5044162;28;20056;-75
2021/03/27 09:31:33;;;;;;;10.18;7.50;;;;;;;12.98;32.82;100099.78;5052183;28;20025;-75
2021/03/27 09:34:13;;;;;;;14.07;8.18;;;;;;;12.99;32.79;100092.56;5050425;28;20033;-75
2021/03/27 09:36:52;;;;;;;12.77;7.88;;;;;;;13.03;34.71;100092.84;5052014;28;20432;-75
2021/03/27 09:39:43;;;;;;;10.70;7.50;;;;;;;13.07;34.47;100086.66;5052943;28;20491;-75
2021/03/27 09:42:53;;;;;;;11.45;7.07;;;;;;;13.11;32.95;100087.75;5050571;28;20071;-75
2021/03/27 09:45:54;;;;;;;12.60;7.05;;;;;;;13.09;32.40;100083.72;5051821;28;20033;-76
2021/03/27 09:48:21;;;;;;;12.18;7.20;;;;;;;13.10;32.84;100080.75;5051973;28;20025;-75
2021/03/27 09:51:16;;;;;;;12.43;6.47;;;;;;;13.08;33.27;100080.19;5051370;28;20032;-75
2021/03/27 09:53:57;;;;;;;10.20;6.53;;;;;;;13.09;33.80;100073.75;5052503;28;20082;-75
2021/03/27 09:56:32;;;;;;;11.88;7.40;;;;;;;13.11;35.00;100063.56;5051127;28;20032;-75
2021/03/27 09:59:18;;;;;;;8.63;6.57;;;;;;;13.22;35.11;100072.44;5050556;28;20047;-75
2021/03/27 10:02:00;;;;;;;11.02;5.68;;;;;;;13.32;33.42;100068.13;5051397;28;20421;-75
2021/03/27 10:05:12;;;;;;;10.10;5.82;;;;;;;13.44;34.17;100058.75;5050965;28;20040;-75
2021/03/27 10:07:53;;;;;;;7.05;5.95;;;;;;;13.53;32.25;100059.00;5033297;28;20495;-75
2021/03/27 10:10:37;;;;;;;7.40;4.95;;;;;;;13.55;32.10;100048.81;5047843;28;20052;-75
2021/03/27 10:13:11;;;;;;;8.88;5.85;;;;;;;13.69;31.37;100056.31;5030805;28;20531;-75
2021/03/27 10:15:40;;;;;;;7.13;5.00;;;;;;;13.75;32.15;100053.31;5051323;28;20028;-75
2021/03/27 10:18:17;;;;;;;9.13;5.80;;;;;;;13.82;31.31;100049.53;5049527;28;20059;-75
2021/03/27 10:21:23;;;;;;;8.52;5.20;;;;;;;13.89;31.35;100042.81;5050385;28;20029;-75
2021/03/27 10:24:07;;;;;;;8.30;5.55;;;;;;;13.95;31.15;100037.44;5011462;28;20030;-72
2021/03/27 10:26:51;;;;;;;8.15;5.35;;;;;;;14.05;31.83;100040.09;5028968;28;20030;-74
2021/03/27 10:29:44;;;;;;;5.75;4.88;;;;;;;14.05;29.98;100035.50;5030199;28;20035;-75
2021/03/27 10:32:45;;;;;;;5.82;4.53;;;;;;;14.07;30.31;100029.84;5030826;28;20021;-75
2021/03/27 10:35:28;;;;;;;5.82;4.75;;;;;;;14.06;30.19;100030.94;5019484;28;20163;-76
2021/03/27 10:37:53;;;;;;;9.50;5.00;;;;;;;14.07;29.95;100025.28;5030288;28;20083;-75
2021/03/27 10:40:44;;;;;;;6.70;5.05;;;;;;;14.09;29.46;100020.41;5032231;28;20470;-75
2021/03/27 10:43:42;;;;;;;8.05;4.10;;;;;;;14.17;31.33;100020.94;5030693;28;20029;-76
2021/03/27 10:46:31;;;;;;;8.80;5.97;;;;;;;14.27;29.97;100022.78;5030489;28;20099;-76
2021/03/27 10:49:18;;;;;;;36.70;15.02;;;;;;;14.35;30.79;100017.59;5031589;28;20036;-76
2021/03/27 10:52:22;;;;;;;8.82;5.95;;;;;;;14.41;29.16;100015.72;5031311;28;20091;-75
2021/03/27 10:55:09;;;;;;;43.67;13.27;;;;;;;14.47;30.16;100011.91;5048341;28;20108;-76
2021/03/27 10:58:16;;;;;;;7.40;4.88;;;;;;;14.54;28.57;100014.31;5049314;28;20477;-76
2021/03/27 11:01:06;;;;;;;8.43;4.53;;;;;;;14.55;28.91;100002.47;5050292;28;20378;-76
2021/03/27 11:04:09;;;;;;;6.43;3.63;;;;;;;14.55;28.29;99997.88;5050537;28;20112;-76
2021/03/27 11:07:08;;;;;;;5.68;3.80;;;;;;;14.54;27.98;100004.31;5049989;28;20013;-76
2021/03/27 11:10:06;;;;;;;5.78;3.80;;;;;;;14.51;28.19;99996.00;5051226;28;20103;-76
2021/03/27 11:12:59;;;;;;;5.53;3.85;;;;;;;14.48;28.05;99997.38;5049033;28;20025;-76
2021/03/27 11:16:11;;;;;;;4.95;4.55;;;;;;;14.44;27.92;99998.19;5047946;28;20025;-76
2021/03/27 11:18:42;;;;;;;5.40;3.53;;;;;;;14.42;27.87;99993.09;5051668;28;20120;-76
2021/03/27 11:21:11;;;;;;;5.43;3.13;;;;;;;14.41;28.35;99984.22;5049081;28;20393;-76
2021/03/27 11:23:36;;;;;;;7.47;4.00;;;;;;;14.41;28.09;99988.78;5051098;28;20107;-76
2021/03/27 11:26:07;;;;;;;4.95;3.42;;;;;;;14.43;28.72;99983.94;5050925;28;20159;-76
2021/03/27 11:28:39;;;;;;;7.00;3.45;;;;;;;14.48;28.25;99983.13;5049773;28;20119;-76
2021/03/27 11:31:13;;;;;;;4.68;3.60;;;;;;;14.50;27.68;99971.00;5050596;28;20029;-75
2021/03/27 11:33:50;;;;;;;7.63;3.85;;;;;;;14.52;27.48;99974.19;5049945;28;20047;-76
2021/03/27 11:36:36;;;;;;;7.27;3.43;;;;;;;14.51;26.89;99964.53;5047138;28;20075;-76
2021/03/27 11:39:11;;;;;;;7.07;4.60;;;;;;;14.57;26.72;99960.72;5049586;28;20028;-76
2021/03/27 11:41:49;;;;;;;6.10;3.58;;;;;;;14.58;26.95;99958.81;5049569;28;20037;-76
2021/03/27 11:44:35;;;;;;;4.38;3.10;;;;;;;14.61;26.29;99954.75;5050807;28;20094;-76
2021/03/27 11:47:25;;;;;;;3.53;3.20;;;;;;;14.67;26.27;99954.47;5049558;28;20086;-76
2021/03/27 11:50:04;;;;;;;5.13;3.25;;;;;;;14.72;27.13;99953.63;5048334;28;20170;-76
2021/03/27 11:52:35;;;;;;;;;;;;;;;14.78;25.92;99954.38;5050999;28;20036;-75
2021/03/27 11:55:23;;;;;;;6.25;3.92;;;;;;;14.78;25.92;99940.94;5050346;28;19909;-76
2021/03/27 11:57:55;;;;;;;4.88;3.33;;;;;;;14.83;25.79;99941.69;5050391;28;20343;-76
2021/03/27 12:03:21;;;;;;;6.00;3.65;;;;;;;15.02;27.16;99949.06;5050255;28;20086;-76
2021/03/27 12:06:15;;;;;;;5.10;2.95;;;;;;;15.10;25.26;99947.66;5050139;28;20029;-76
2021/03/27 12:08:50;;;;;;;5.40;3.92;;;;;;;15.11;24.74;99931.22;5049726;28;20486;-76
2021/03/27 12:11:43;;;;;;;3.58;2.85;;;;;;;15.12;24.80;99943.56;5050209;28;20382;-76
2021/03/27 12:14:50;;;;;;;9.13;3.42;;;;;;;15.16;25.25;99933.03;5048467;28;20043;-74
2021/03/27 12:17:53;;;;;;;7.78;4.50;;;;;;;15.23;26.12;99938.09;5047992;28;20889;-77
2021/03/27 12:20:33;;;;;;;5.55;3.30;;;;;;;15.32;26.25;99941.78;5046979;28;20029;-76
2021/03/27 12:23:16;;;;;;;4.90;3.13;;;;;;;15.40;25.88;99929.56;5050571;28;20366;-75
2021/03/27 12:26:14;;;;;;;4.35;2.97;;;;;;;15.48;25.46;99934.34;5053104;28;20025;-77
2021/03/27 12:28:51;;;;;;;4.65;3.80;;;;;;;15.53;24.94;99918.91;5052609;28;20052;-76
2021/03/27 12:31:21;;;;;;;3.20;2.88;;;;;;;15.52;25.03;99919.97;5051136;28;20578;-76
2021/03/27 12:34:12;;;;;;;4.82;3.53;;;;;;;15.45;25.12;99916.03;5053530;28;20477;-76
2021/03/27 12:36:52;;;;;;;4.43;3.08;;;;;;;15.44;25.87;99911.72;5053318;28;20025;-76
2021/03/27 12:39:26;;;;;;;4.43;3.45;;;;;;;15.50;26.03;99915.97;5053758;28;20024;-74
2021/03/27 12:42:24;;;;;;;6.05;3.50;;;;;;;15.57;25.81;99918.34;5053032;28;20056;-74
2021/03/27 12:45:12;;;;;;;3.55;2.67;;;;;;;15.60;25.15;99912.34;5052332;28;20028;-74
2021/03/27 12:47:39;;;;;;;6.35;2.90;;;;;;;15.65;25.54;99910.41;5052847;28;20040;-76
2021/03/27 12:50:34;;;;;;;3.42;2.97;;;;;;;15.69;25.10;99911.44;5053827;28;20150;-76
2021/03/27 12:53:24;;;;;;;6.07;3.88;;;;;;;15.76;24.87;99908.38;5052716;28;20067;-76
2021/03/27 12:56:08;;;;;;;4.72;3.55;;;;;;;15.81;25.30;99913.72;5052726;28;20083;-75
2021/03/27 12:59:15;;;;;;;7.50;3.22;;;;;;;15.84;25.58;99906.97;5051847;28;20428;-74